プルコヴォ空港(サンクトペテルブルグ)の過去48時間の天気

プルコヴォ空港(サンクトペテルブルグ) (St. Peterburg)

現在時刻: 11/19 09:18 MSK (11/19 06:18 UTC) 以下の時間は現地時間です。

過去48時間のMETAR気象情報
時間 風向 風速(m/s) 視程 気温(℃) 湿度(%) 気圧(hPa) 天気現象
19 09:00 南東 7 10km以上 6 87 1025
19 08:30 南東 7 10km以上 6 87 1025
19 08:00 南東 7 10km以上 6 87 1025
19 07:30 南東 7 10km以上 6 87 1025
19 07:00 南東 7 10km以上 6 87 1025
19 06:30 南東 8 10km以上 6 87 1025
19 06:00 南東 7 10km以上 7 87 1025
19 05:30 南東 8 10km以上 7 87 1025
19 05:00 南東 7 10km以上 7 87 1025
19 04:30 東南東 6 10km以上 7 93 1025
19 04:00 東南東 6 10km以上 7 87 1025
19 03:30 東南東 6 10km以上 7 87 1026
19 03:00 東南東 5 4500m 6 93 1026 弱い霧雨 もや
19 02:30 東南東 6 5000m 6 93 1026 弱い霧雨
19 02:00 東南東 6 4700m 6 93 1026 弱い霧雨 もや
19 01:30 6 3600m 6 93 1026 弱い霧雨 もや
19 01:00 5 4400m 6 93 1026 弱い霧雨 もや
19 00:30 5 6000m 5 100 1026
19 00:00 5 6000m 5 93 1026
18 23:30 5 4300m 5 93 1026 もや
18 23:00 5 2900m 5 93 1026 もや
18 22:30 5 1800m 5 93 1026 もや
18 22:00 4 900m 5 93 1026
18 21:30 5 900m 5 93 1026
18 21:00 5 1700m 5 93 1027 もや
18 20:30 5 4100m 5 93 1027 もや
18 20:00 4 6000m 4 93 1027
18 19:30 3 4600m 4 93 1027 もや
18 19:00 4 5000m 4 87 1027 もや
18 18:30 4 6000m 4 93 1027
18 18:00 東南東 4 8000m 5 87 1027
18 17:30 3 7000m 4 87 1026
18 17:00 東南東 3 9000m 6 81 1026
18 16:30 3 10km以上 5 87 1026
18 16:00 東南東 2 10km以上 6 81 1026
18 15:30 3 10km以上 6 81 1026
18 15:00 3 10km以上 7 81 1026
18 14:30 3 10km以上 7 81 1026
18 14:00 南東 2 10km以上 7 81 1026
18 13:30 3 10km以上 7 81 1026
18 13:00 2 10km以上 6 93 1027
18 12:30 2 10km以上 6 93 1027
18 12:00 不定 1 4600m 6 93 1027 もや
18 11:30 静穏 0 3800m 5 100 1027 もや
18 11:00 静穏 0 1800m 5 93 1027 もや
18 10:30 静穏 0 450m 4 100 1026
18 10:00 静穏 0 200m 4 100 1026
18 09:30 南南東 1 150m 4 93 1026
18 09:00 不定 1 100m 4 93 1025
18 08:30 南南西 2 150m 4 93 1025
18 08:00 静穏 0 100m 2 93 1025
18 07:30 西南西 1 150m 2 93 1024
18 07:00 不定 1 1400m 4 93 1024 部分霧 もや
18 06:30 不定 1 7000m 4 93 1024
18 06:00 南西 1 6000m 4 93 1024
18 05:30 南西 1 8000m 5 87 1024
18 05:00 静穏 0 10km以上 5 93 1024
18 04:30 西南西 2 10km以上 6 87 1024
18 04:00 不定 1 10km以上 7 81 1024
18 03:30 西南西 2 10km以上 7 87 1024
18 03:00 西南西 3 10km以上 7 87 1024
18 02:30 西南西 3 10km以上 7 87 1024
18 02:00 西 2 10km以上 7 87 1024
18 01:30 西 3 10km以上 7 87 1024
18 01:00 西 2 10km以上 7 93 1024
18 00:30 南西 2 10km以上 8 87 1023
18 00:00 南南西 2 10km以上 8 87 1023
17 23:30 南西 2 10km以上 7 93 1023
17 23:00 南西 2 10km以上 7 87 1023
17 22:30 南西 3 10km以上 7 87 1023
17 22:00 西南西 2 10km以上 7 93 1023
17 21:30 南西 2 10km以上 7 93 1023
17 21:00 南南西 2 10km以上 7 87 1023
17 20:30 不定 1 10km以上 7 87 1023
17 20:00 2 10km以上 7 87 1022
17 19:30 2 10km以上 7 87 1022
17 19:00 2 10km以上 7 87 1022
17 18:30 3 10km以上 7 93 1023
17 18:00 南南西 3 10km以上 7 93 1022
17 17:30 南南西 4 10km以上 7 93 1022
17 17:00 南南西 4 10km以上 7 93 1022
17 16:30 南南西 5 10km以上 7 93 1022
17 16:00 南南西 5 10km以上 7 93 1022
17 15:30 南南西 5 10km以上 7 87 1021
17 15:00 南南西 7 10km以上 7 87 1021
17 14:30 南南西 5 10km以上 7 87 1021
17 14:00 南南西 4 10km以上 6 93 1021
17 13:30 南南西 4 10km以上 6 93 1021
17 13:00 南南西 3 10km以上 6 93 1021
17 12:30 南南西 4 10km以上 6 93 1021
17 12:00 3 10km以上 5 93 1021
17 11:30 南南東 4 9000m 5 93 1021
17 11:00 南南東 3 8000m 5 93 1021
17 10:30 南南東 3 7000m 5 93 1021
17 10:00 南東 4 4300m 4 93 1021 弱い霧雨 もや
17 09:30 南東 4 3400m 4 93 1021 弱い霧雨 もや
ULLI 190600Z 13007MPS 9999 OVC008 06/04 Q1025 R88/290050 NOSIG
ULLI 190530Z 13007MPS 9999 OVC008 06/04 Q1025 R88/290050 NOSIG
ULLI 190500Z 13007MPS 9999 OVC008 06/04 Q1025 R88/290050 NOSIG
ULLI 190430Z 13007MPS 9999 OVC008 06/04 Q1025 R88/290050 NOSIG
ULLI 190400Z 13007MPS 9999 OVC009 06/04 Q1025 R88/290050 NOSIG
ULLI 190330Z 13008MPS 9999 OVC009 06/04 Q1025 R88/290050 NOSIG
ULLI 190300Z 13007MPS 9999 OVC007 07/05 Q1025 R88/290050 NOSIG
ULLI 190230Z 13008MPS 9999 OVC007 07/05 Q1025 R88/290050 NOSIG
ULLI 190200Z 13007MPS 9999 OVC006 07/05 Q1025 R88/290050 NOSIG RMK OBST OBSC
ULLI 190130Z 12006MPS 9999 OVC006 07/06 Q1025 R88/290050 NOSIG RMK OBST OBSC
ULLI 190100Z 12006MPS 9999 OVC005 07/05 Q1025 R88/290050 NOSIG RMK OBST OBSC
ULLI 190030Z 11006MPS 9999 OVC004 07/05 Q1026 R88/290050 NOSIG RMK QBB140 OBST OBSC
ULLI 190000Z 11005MPS 4500 -DZ BR OVC004 06/05 Q1026 R88/290050 NOSIG RMK QBB140 OBST OBSC
ULLI 182330Z 11006MPS 5000 -DZ OVC004 06/05 Q1026 R88/290050 NOSIG RMK QBB140 OBST OBSC
ULLI 182300Z 11006MPS 4700 -DZ BR OVC004 06/05 Q1026 R88/290050 NOSIG RMK QBB120 OBST OBSC
ULLI 182230Z 10006MPS 3600 -DZ BR OVC004 06/05 Q1026 R88/290050 NOSIG RMK QBB120 OBST OBSC
ULLI 182200Z 10005MPS 4400 -DZ BR OVC004 06/05 Q1026 R10L/290050 NOSIG RMK QBB120 OBST OBSC
ULLI 182130Z 10005MPS 6000 OVC004 05/05 Q1026 R10L/290050 NOSIG RMK QBB140 OBST OBSC
ULLI 182100Z 10005MPS 6000 OVC004 05/04 Q1026 R10L/290050 NOSIG RMK QBB120 OBST OBSC
ULLI 182030Z 10005MPS 4300 BR OVC002 05/04 Q1026 R10L/290050 NOSIG RMK QBB080 OBST OBSC
ULLI 182000Z 10005MPS 2900 BR OVC002 05/04 Q1026 R10L/290050 NOSIG RMK QBB060 OBST OBSC
ULLI 181930Z 10005MPS 1800 BR OVC001 05/04 Q1026 R10L/290050 NOSIG RMK QBB050 OBST OBSC
ULLI 181900Z 09004MPS 0900 0700E R10L/P2000U FG VV001 05/04 Q1026 R10L/290050 NOSIG RMK QBB050 OBST OBSC
ULLI 181830Z 10005MPS 0900 0800E R10L/P2000D FG OVC001 05/04 Q1026 R10L/290050 NOSIG RMK QBB050 OBST OBSC
ULLI 181800Z 10005MPS 1700 1300SW R10R/P2000U BR OVC002 05/04 Q1027 R10R/290050 NOSIG RMK QBB060 OBST OBSC
ULLI 181730Z 09005MPS 4100 1900SE BR BKN001 OVC006 05/04 Q1027 R10R/290050 NOSIG RMK QBB050 OBST OBSC
ULLI 181700Z 10004MPS 6000 OVC003 04/03 Q1027 R10R/290050 NOSIG RMK QBB110 OBST OBSC
ULLI 181630Z 10003MPS 4600 BR BKN005 OVC016 04/03 Q1027 R88/290050 NOSIG RMK OBST OBSC
ULLI 181600Z 10004MPS 5000 BR BKN013 04/02 Q1027 R88/290050 NOSIG
ULLI 181530Z 10004MPS 6000 FEW014 04/03 Q1027 R88/290050 NOSIG
ULLI 181500Z 11004MPS 8000 NSC 05/03 Q1027 R88/290050 NOSIG
ULLI 181430Z 10003MPS 7000 NSC 04/02 Q1026 R88/290050 NOSIG
ULLI 181400Z 11003MPS 9000 NSC 06/03 Q1026 R88/290050 NOSIG
ULLI 181330Z 10003MPS CAVOK 05/03 Q1026 R88/290050 NOSIG
ULLI 181300Z 11002MPS 9999 FEW012 06/03 Q1026 R88/290050 NOSIG
ULLI 181230Z 10003MPS 9999 SCT012 06/03 Q1026 R88/290050 NOSIG
ULLI 181200Z 09003MPS 9999 BKN012 07/04 Q1026 R88/290050 NOSIG
ULLI 181130Z 09003MPS 9999 OVC013 07/04 Q1026 R88/290050 NOSIG
ULLI 181100Z 13002MPS 090V170 9999 OVC014 07/04 Q1026 R88/290050 NOSIG
ULLI 181030Z 18003MPS 9999 OVC014 07/04 Q1026 R88/290050 NOSIG
ULLI 181000Z 18002MPS 140V210 9999 OVC013 06/05 Q1027 R88/290050 NOSIG
ULLI 180930Z 17002MPS 130V210 9999 OVC010 06/05 Q1027 R88/290050 NOSIG
ULLI 180900Z VRB01MPS 4600 BR OVC013 06/05 Q1027 R88/290050 NOSIG
ULLI 180830Z 00000MPS 3800 BR SCT003 OVC008 05/05 Q1027 R88/290050 NOSIG RMK QBB090 OBST OBSC
ULLI 180800Z 00000MPS 1800 1200SE R28L/1200U R28R/P2000U BR SCT001 OVC006 05/04 Q1027 R88/290050 NOSIG RMK QBB050 OBST OBSC
ULLI 180730Z 00000MPS 0450 0300W R28L/0900D R28R/1800U FG BKN001 OVC007 04/04 Q1026 R88/290050 NOSIG RMK QBB050 OBST OBSC
ULLI 180700Z 00000MPS 0200 R28L/0450N R28R/0500N FG VV001 04/04 Q1026 R88/290050 NOSIG RMK QBB050 OBST OBSC
ULLI 180630Z 16001MPS 0150 0100NW R28L/0450N R28R/0400N FG VV001 04/03 Q1026 R88/290050 NOSIG RMK QBB030 OBST OBSC
ULLI 180600Z VRB01MPS 0100 R28L/0350N R28R/0350N FG VV001 04/03 Q1025 R88/290050 NOSIG RMK QBB030 OBST OBSC
ULLI 180530Z 21002MPS 0150 0100SW R28L/0450N R28R/0450N FG VV001 04/03 Q1025 R88/290050 NOSIG RMK QBB030 OBST OBSC
ULLI 180500Z 00000MPS 0100 R28L/0500N R28R/0600N FG NSC 02/01 Q1025 R88/290050 NOSIG
ULLI 180430Z 24001MPS 0150 0100E R28L/0800N R28R/0350N FG NSC 02/01 Q1024 R88/290050 NOSIG
ULLI 180400Z VRB01MPS 1400 0150NE PRFG BR NSC 04/03 Q1024 R28L/290050 NOSIG
ULLI 180330Z VRB01MPS 7000 NSC 04/03 Q1024 R28L/290050 NOSIG
ULLI 180300Z 23001MPS 6000 NSC 04/03 Q1024 R28L/290050 NOSIG
ULLI 180230Z 23001MPS 8000 NSC 05/03 Q1024 R28L/290050 NOSIG
ULLI 180200Z 00000MPS 9999 FEW009 05/04 Q1024 R28L/290050 NOSIG
ULLI 180130Z 24002MPS 200V280 9999 OVC009 06/04 Q1024 R28L/290050 NOSIG
ULLI 180100Z VRB01MPS 9999 OVC008 07/04 Q1024 R28L/290050 NOSIG
ULLI 180030Z 24002MPS 200V290 9999 OVC009 07/05 Q1024 R28L/290050 NOSIG
ULLI 180000Z 24003MPS 200V300 9999 OVC009 07/05 Q1024 R28L/290050 NOSIG
ULLI 172330Z 24003MPS 190V290 9999 OVC008 07/05 Q1024 R28L/290050 NOSIG
ULLI 172300Z 26002MPS 230V290 9999 OVC008 07/05 Q1024 R28L/290050 NOSIG
ULLI 172230Z 26003MPS 220V290 9999 OVC010 07/05 Q1024 R28L/290050 NOSIG
ULLI 172200Z 26002MPS 210V290 9999 OVC008 07/06 Q1024 R28L/290050 NOSIG
ULLI 172130Z 23002MPS 200V280 9999 BKN008 08/06 Q1023 R28L/290050 NOSIG
ULLI 172100Z 21002MPS 110V270 9999 BKN009 08/06 Q1023 R28L/290050 NOSIG
ULLI 172030Z 23002MPS 190V270 9999 BKN009 07/06 Q1023 R28L/290050 NOSIG
ULLI 172000Z 23002MPS 200V270 9999 SCT009 07/05 Q1023 R28L/290050 NOSIG
ULLI 171930Z 23003MPS 200V270 9999 BKN008 07/05 Q1023 R28L/290050 NOSIG
ULLI 171900Z 24002MPS 210V270 9999 SCT009 07/06 Q1023 R28L/290050 NOSIG
ULLI 171830Z 23002MPS 180V270 9999 SCT009 07/06 Q1023 R28L/290050 NOSIG
ULLI 171800Z 20002MPS 9999 FEW006 07/05 Q1023 R28L/290050 NOSIG RMK OBST OBSC
ULLI 171730Z VRB01MPS 9999 FEW006 07/05 Q1023 R28L/290050 NOSIG RMK OBST OBSC
ULLI 171700Z 19002MPS 9999 FEW009 07/05 Q1022 R28L/290050 NOSIG
ULLI 171630Z 18002MPS CAVOK 07/05 Q1022 R88/290050 NOSIG
ULLI 171600Z 18002MPS 130V230 9999 BKN015 07/05 Q1022 R88/290050 NOSIG
ULLI 171530Z 19003MPS 9999 BKN015 07/06 Q1023 R88/290050 NOSIG
ULLI 171500Z 20003MPS 9999 BKN010 OVC016 07/06 Q1022 R88/290050 NOSIG
ULLI 171430Z 21004MPS 9999 BKN006 OVC030 07/06 Q1022 R88/290050 NOSIG RMK OBST OBSC
ULLI 171400Z 21004MPS 9999 BKN006 OVC030 07/06 Q1022 R88/290050 NOSIG RMK OBST OBSC
ULLI 171330Z 21005MPS 9999 SCT006 BKN015 OVC033 07/06 Q1022 R88/290050 NOSIG RMK OBST OBSC
ULLI 171300Z 20005MPS 9999 SCT006 BKN015 OVC026 07/06 Q1022 R88/290050 NOSIG RMK OBST OBSC
ULLI 171230Z 21005MPS 9999 BKN006 OVC025 07/05 Q1021 R88/290050 NOSIG RMK OBST OBSC
ULLI 171200Z 20007MPS 9999 BKN005 OVC023 07/05 Q1021 R88/290050 NOSIG RMK OBST OBSC
ULLI 171130Z 20005MPS 180V240 9999 BKN005 OVC026 07/05 Q1021 R88/290050 NOSIG RMK OBST OBSC
ULLI 171100Z 21004MPS 180V240 9999 BKN005 OVC020 06/05 Q1021 WS R28L R88/290050 NOSIG RMK OBST OBSC
ULLI 171030Z 21004MPS 9999 BKN005 OVC020 06/05 Q1021 WS R28L R88/290050 NOSIG RMK OBST OBSC
ULLI 171000Z 20003MPS 9999 BKN005 OVC020 06/05 Q1021 WS R10R R88/290050 NOSIG RMK OBST OBSC
ULLI 170930Z 20004MPS 9999 BKN005 OVC016 06/05 Q1021 R88/290050 NOSIG RMK OBST OBSC
ULLI 170900Z 19003MPS 160V220 9999 BKN004 OVC020 05/04 Q1021 R88/290050 NOSIG RMK QBB140 OBST OBSC
ULLI 170830Z 16004MPS 130V190 9000 BKN004 OVC020 05/04 Q1021 R88/290050 NOSIG RMK QBB120 OBST OBSC
ULLI 170800Z 16003MPS 130V190 8000 BKN004 OVC020 05/04 Q1021 R88/290050 NOSIG RMK QBB120 OBST OBSC
ULLI 170730Z 16003MPS 120V200 7000 BKN004 OVC020 05/04 Q1021 R88/290050 NOSIG RMK QBB120 OBST OBSC
ULLI 170700Z 14004MPS 4300 -DZ BR OVC003 04/03 Q1021 R88/290050 TEMPO 1000 BR RMK QBB110 OBST OBSC
ULLI 170630Z 14004MPS 3400 -DZ BR OVC003 04/03 Q1021 R88/290050 TEMPO 1000 BR RMK QBB090 OBST OBSC